Time,TemperatureF,DewpointF,PressureIn,WindDirection,WindDirectionDegrees,WindSpeedMPH,WindSpeedGustMPH,Humidity,HourlyPrecipIn,Conditions,Clouds,dailyrainin,SolarRadiationWatts/m^2,SoftwareType,DateUTC
2013-01-25 00:03:00,28.6,20.0,29.65,NW,315,4.6,4.6,70,0.00,CLR,,0.00,0.0,WeatherDisplay:10.37,2013-01-24 23:03:00,
2013-01-25 00:08:00,28.4,20.2,29.71,North,0,4.9,4.9,71,0.00,CLR,,0.00,0.0,WeatherDisplay:10.37,2013-01-24 23:08:00,
2013-01-25 00:13:00,28.4,20.2,29.71,North,0,5.8,5.8,71,0.00,CLR,,0.00,0.0,WeatherDisplay:10.37,2013-01-24 23:13:00,
2013-01-25 00:18:00,28.4,20.2,29.71,NNW,338,5.8,5.8,71,0.00,CLR,,0.00,0.0,WeatherDisplay:10.37,2013-01-24 23:18:00,
2013-01-25 00:23:00,28.4,20.2,29.68,NNW,338,6.9,6.9,71,0.00,CLR,,0.00,0.0,WeatherDisplay:10.37,2013-01-24 23:23:00,
2013-01-25 00:28:00,28.4,19.9,29.68,NNE,22,5.8,5.8,70,0.00,CLR,,0.00,0.0,WeatherDisplay:10.37,2013-01-24 23:28:00,
2013-01-25 00:33:00,28.6,20.0,29.68,NNW,338,8.1,8.1,70,0.00,CLR,,0.00,0.0,WeatherDisplay:10.37,2013-01-24 23:33:00,
2013-01-25 00:38:00,28.6,20.0,29.68,WNW,292,5.8,5.8,70,0.00,CLR,,0.00,0.0,WeatherDisplay:10.37,2013-01-24 23:38:00,
2013-01-25 00:43:00,28.6,20.0,29.68,North,0,6.4,6.4,70,0.00,CLR,,0.00,0.0,WeatherDisplay:10.37,2013-01-24 23:43:00,
2013-01-25 00:48:00,28.6,19.7,29.68,North,0,8.1,8.1,69,0.00,CLR,,0.00,0.0,WeatherDisplay:10.37,2013-01-24 23:48:00,
2013-01-25 00:53:00,28.6,19.7,29.71,West,270,7.6,7.6,69,0.00,CLR,,0.00,0.0,WeatherDisplay:10.37,2013-01-24 23:53:00,
2013-01-25 00:58:00,28.6,19.7,29.71,NNW,338,6.9,6.9,69,0.00,CLR,,0.00,0.0,WeatherDisplay:10.37,2013-01-24 23:58:00,
2013-01-25 01:03:00,28.6,20.0,29.71,WNW,292,5.8,6.0,70,0.00,CLR,,0.00,0.0,WeatherDisplay:10.37,2013-01-25 00:03:00,
2013-01-25 01:08:00,28.6,20.0,29.68,WNW,292,4.6,6.0,70,0.00,CLR,,0.00,0.0,WeatherDisplay:10.37,2013-01-25 00:08:00,
2013-01-25 01:13:00,28.6,20.0,29.68,NNW,338,4.6,4.6,70,0.00,CLR,,0.00,0.0,WeatherDisplay:10.37,2013-01-25 00:13:00,
2013-01-25 01:18:00,28.6,20.0,29.68,NNE,22,9.2,9.2,70,0.00,CLR,,0.00,0.0,WeatherDisplay:10.37,2013-01-25 00:18:00,
2013-01-25 01:23:00,28.6,20.0,29.65,NNE,22,9.2,9.2,70,0.00,CLR,,0.00,0.0,WeatherDisplay:10.37,2013-01-25 00:23:00,
2013-01-25 01:28:00,28.8,20.2,29.65,NNE,22,9.2,9.2,70,0.00,CLR,,0.00,0.0,WeatherDisplay:10.37,2013-01-25 00:28:00,
2013-01-25 01:33:00,28.8,20.2,29.65,NNE,22,9.2,9.2,70,0.00,CLR,,0.00,0.0,WeatherDisplay:10.37,2013-01-25 00:33:00,
2013-01-25 01:38:00,28.8,20.2,29.71,NNE,22,9.2,9.2,70,0.00,CLR,,0.00,0.0,WeatherDisplay:10.37,2013-01-25 00:38:00,
2013-01-25 01:43:00,28.9,20.0,29.71,NNE,22,9.2,9.2,69,0.00,CLR,,0.00,0.0,WeatherDisplay:10.37,2013-01-25 00:43:00,
2013-01-25 01:48:00,29.1,19.9,29.71,NNE,22,9.2,9.2,68,0.00,CLR,,0.00,0.0,WeatherDisplay:10.37,2013-01-25 00:48:00,
2013-01-25 01:53:00,29.1,19.9,29.68,NNW,338,9.2,9.2,68,0.00,CLR,,0.00,0.0,WeatherDisplay:10.37,2013-01-25 00:53:00,
2013-01-25 01:58:00,29.3,19.3,29.68,NNW,338,5.8,6.0,66,0.00,CLR,,0.00,0.0,WeatherDisplay:10.37,2013-01-25 00:58:00,
2013-01-25 02:03:00,29.3,19.7,29.68,ENE,68,6.9,6.9,67,0.00,CLR,,0.00,0.0,WeatherDisplay:10.37,2013-01-25 01:03:00,
2013-01-25 02:08:00,29.3,19.3,29.71,WNW,292,4.6,4.9,66,0.00,CLR,,0.00,0.0,WeatherDisplay:10.37,2013-01-25 01:08:00,
2013-01-25 02:13:00,29.3,19.0,29.71,NE,45,3.8,6.4,65,0.00,CLR,,0.00,0.0,WeatherDisplay:10.37,2013-01-25 01:13:00,
2013-01-25 02:18:00,29.3,19.0,29.71,NNE,22,3.5,4.3,65,0.00,CLR,,0.00,0.0,WeatherDisplay:10.37,2013-01-25 01:18:00,
2013-01-25 02:23:00,29.3,18.3,29.68,WNW,292,3.8,4.9,63,0.00,CLR,,0.00,0.0,WeatherDisplay:10.37,2013-01-25 01:23:00,
2013-01-25 02:28:00,29.3,18.3,29.68,WNW,292,9.8,9.8,63,0.00,CLR,,0.00,0.0,WeatherDisplay:10.37,2013-01-25 01:28:00,
2013-01-25 02:33:00,29.3,18.3,29.68,NNE,22,10.5,10.5,63,0.00,CLR,,0.00,0.0,WeatherDisplay:10.37,2013-01-25 01:33:00,
2013-01-25 02:38:00,29.3,18.3,29.71,NNE,22,10.5,10.5,63,0.00,CLR,,0.00,0.0,WeatherDisplay:10.37,2013-01-25 01:38:00,
2013-01-25 02:43:00,29.5,18.1,29.71,NNE,22,10.4,10.4,62,0.00,CLR,,0.00,0.0,WeatherDisplay:10.37,2013-01-25 01:43:00,
2013-01-25 02:48:00,29.5,17.3,29.71,NNE,22,5.9,5.9,60,0.00,CLR,,0.00,0.0,WeatherDisplay:10.37,2013-01-25 01:48:00,
2013-01-25 02:53:00,29.7,17.8,29.71,WNW,292,8.1,8.1,61,0.00,CLR,,0.00,0.0,WeatherDisplay:10.37,2013-01-25 01:53:00,
2013-01-25 02:58:00,29.7,17.5,29.71,WNW,292,5.9,7.1,60,0.00,CLR,,0.00,0.0,WeatherDisplay:10.37,2013-01-25 01:58:00,
2013-01-25 03:03:00,29.7,17.1,29.71,North,0,5.8,6.0,59,0.00,CLR,,0.00,0.0,WeatherDisplay:10.37,2013-01-25 02:03:00,
2013-01-25 03:08:00,29.8,17.2,29.71,NNE,22,5.9,7.4,59,0.00,CLR,,0.00,0.0,WeatherDisplay:10.37,2013-01-25 02:08:00,
2013-01-25 03:13:00,29.8,16.8,29.71,NNE,22,4.9,6.2,58,0.00,CLR,,0.00,0.0,WeatherDisplay:10.37,2013-01-25 02:13:00,
2013-01-25 03:18:00,30.0,17.4,29.71,NNE,22,4.9,6.2,59,0.00,CLR,,0.00,0.0,WeatherDisplay:10.37,2013-01-25 02:18:00,
2013-01-25 03:23:00,30.0,17.0,29.68,NNE,22,4.9,6.2,58,0.00,CLR,,0.00,0.0,WeatherDisplay:10.37,2013-01-25 02:23:00,
2013-01-25 03:28:00,30.2,16.4,29.68,NNE,22,4.9,6.2,56,0.00,CLR,,0.00,0.0,WeatherDisplay:10.37,2013-01-25 02:28:00,
2013-01-25 03:33:00,30.4,16.5,29.68,NNE,22,4.9,6.2,56,0.00,CLR,,0.00,0.0,WeatherDisplay:10.37,2013-01-25 02:33:00,
2013-01-25 03:38:00,30.4,16.1,29.74,NNE,22,4.9,6.2,55,0.00,CLR,,0.00,0.0,WeatherDisplay:10.37,2013-01-25 02:38:00,
2013-01-25 03:43:00,30.4,16.1,29.74,NNE,22,4.9,6.2,55,0.00,CLR,,0.00,0.0,WeatherDisplay:10.37,2013-01-25 02:43:00,
2013-01-25 03:48:00,30.4,16.1,29.74,NNE,22,4.9,6.2,55,0.00,CLR,,0.00,0.0,WeatherDisplay:10.37,2013-01-25 02:48:00,
2013-01-25 03:53:00,30.2,16.4,29.71,NNE,22,4.9,6.2,56,0.00,CLR,,0.00,0.0,WeatherDisplay:10.37,2013-01-25 02:53:00,
2013-01-25 03:58:00,30.2,16.4,29.71,NNE,22,4.9,6.2,56,0.00,CLR,,0.00,0.0,WeatherDisplay:10.37,2013-01-25 02:58:00,
2013-01-25 04:03:00,30.2,16.4,29.71,NNE,22,4.9,6.2,56,0.00,CLR,,0.00,0.0,WeatherDisplay:10.37,2013-01-25 03:03:00,
2013-01-25 04:08:00,30.2,16.4,29.68,NNE,22,4.9,6.2,56,0.00,CLR,,0.00,0.0,WeatherDisplay:10.37,2013-01-25 03:08:00,
2013-01-25 04:13:00,30.2,16.4,29.68,NNE,22,4.9,6.2,56,0.00,CLR,,0.00,0.0,WeatherDisplay:10.37,2013-01-25 03:13:00,
2013-01-25 04:18:00,30.2,16.4,29.68,NNE,22,4.9,6.2,56,0.00,CLR,,0.00,0.0,WeatherDisplay:10.37,2013-01-25 03:18:00,
2013-01-25 04:23:00,30.2,16.4,29.71,NNE,22,4.9,6.2,56,0.00,CLR,,0.00,0.0,WeatherDisplay:10.37,2013-01-25 03:23:00,
2013-01-25 04:28:00,30.0,16.6,29.71,NNE,22,4.9,6.2,57,0.00,CLR,,0.00,0.0,WeatherDisplay:10.37,2013-01-25 03:28:00,
2013-01-25 04:34:00,30.0,16.6,29.68,NNE,22,4.9,6.2,57,0.00,CLR,,0.00,0.0,WeatherDisplay:10.37,2013-01-25 03:34:00,
2013-01-25 04:39:00,29.8,16.4,29.68,NNE,22,4.9,6.2,57,0.00,CLR,,0.00,0.0,WeatherDisplay:10.37,2013-01-25 03:39:00,
2013-01-25 04:44:00,29.7,16.3,29.68,NNE,22,4.9,6.2,57,0.00,CLR,,0.00,0.0,WeatherDisplay:10.37,2013-01-25 03:44:00,
2013-01-25 04:49:00,29.7,16.7,29.74,NNE,22,4.9,6.2,58,0.00,CLR,,0.00,0.0,WeatherDisplay:10.37,2013-01-25 03:49:00,
2013-01-25 04:54:00,29.7,16.7,29.74,NNE,22,4.9,6.2,58,0.00,CLR,,0.00,0.0,WeatherDisplay:10.37,2013-01-25 03:54:00,
2013-01-25 04:59:00,29.5,16.5,29.74,NNE,22,4.9,6.2,58,0.00,CLR,,0.00,0.0,WeatherDisplay:10.37,2013-01-25 03:59:00,
2013-01-25 05:04:00,29.5,16.5,29.71,NNE,22,4.9,6.2,58,0.00,CLR,,0.00,0.0,WeatherDisplay:10.37,2013-01-25 04:04:00,
2013-01-25 05:09:00,29.3,16.7,29.71,NNE,22,4.9,6.2,59,0.00,CLR,,0.00,0.0,WeatherDisplay:10.37,2013-01-25 04:09:00,
2013-01-25 05:14:00,29.1,16.6,29.71,NNE,22,4.9,6.2,59,0.00,CLR,,0.00,0.0,WeatherDisplay:10.37,2013-01-25 04:14:00,
2013-01-25 05:19:00,29.1,16.6,29.71,NNE,22,4.9,6.2,59,0.00,CLR,,0.00,0.0,WeatherDisplay:10.37,2013-01-25 04:19:00,
2013-01-25 05:24:00,28.9,16.4,29.71,NNE,22,4.9,6.2,59,0.00,CLR,,0.00,0.0,WeatherDisplay:10.37,2013-01-25 04:24:00,
2013-01-25 05:29:00,28.8,16.6,29.71,NNE,22,4.9,6.2,60,0.00,CLR,,0.00,0.0,WeatherDisplay:10.37,2013-01-25 04:29:00,
2013-01-25 05:34:00,28.8,16.6,29.71,NNE,22,4.9,6.2,60,0.00,CLR,,0.00,0.0,WeatherDisplay:10.37,2013-01-25 04:34:00,
2013-01-25 05:39:00,28.6,16.8,29.71,NNE,22,4.9,6.2,61,0.00,CLR,,0.00,0.0,WeatherDisplay:10.37,2013-01-25 04:39:00,
2013-01-25 05:44:00,28.6,16.8,29.71,NNE,22,4.9,6.2,61,0.00,CLR,,0.00,0.0,WeatherDisplay:10.37,2013-01-25 04:44:00,
2013-01-25 05:49:00,28.6,17.2,29.71,NNE,22,4.9,6.2,62,0.00,CLR,,0.00,0.0,WeatherDisplay:10.37,2013-01-25 04:49:00,
2013-01-25 05:54:00,28.6,17.2,29.71,NNE,22,4.9,6.2,62,0.00,CLR,,0.00,0.0,WeatherDisplay:10.37,2013-01-25 04:54:00,
2013-01-25 05:59:00,28.6,17.6,29.71,NNE,22,4.9,6.2,63,0.00,CLR,,0.00,0.0,WeatherDisplay:10.37,2013-01-25 04:59:00,
2013-01-25 06:01:00,28.6,17.9,29.71,NNE,22,4.9,6.2,64,0.00,CLR,,0.00,0.0,WeatherDisplay:10.37,2013-01-25 05:01:00,
2013-01-25 06:02:00,28.6,17.9,29.71,NNE,22,4.9,6.2,64,0.00,CLR,,0.00,0.0,WeatherDisplay:10.37,2013-01-25 05:02:00,
2013-01-25 06:03:00,28.6,17.9,29.71,NNE,22,4.9,6.2,64,0.00,CLR,,0.00,0.0,WeatherDisplay:10.37,2013-01-25 05:03:00,
2013-01-25 06:08:00,28.8,18.1,29.74,NNE,22,4.9,6.2,64,0.00,CLR,,0.00,0.0,WeatherDisplay:10.37,2013-01-25 05:08:00,
2013-01-25 06:13:00,28.8,18.1,29.74,NNE,22,4.9,6.2,64,0.00,CLR,,0.00,0.0,WeatherDisplay:10.37,2013-01-25 05:13:00,
2013-01-25 06:18:00,28.8,18.1,29.74,NNW,338,4.6,4.7,64,0.00,CLR,,0.00,0.0,WeatherDisplay:10.37,2013-01-25 05:18:00,
2013-01-25 06:23:00,28.8,18.1,29.74,WNW,292,3.5,4.5,64,0.00,CLR,,0.00,0.0,WeatherDisplay:10.37,2013-01-25 05:23:00,
2013-01-25 06:28:00,28.8,18.1,29.74,NNE,22,3.8,3.8,64,0.00,CLR,,0.00,0.0,WeatherDisplay:10.37,2013-01-25 05:28:00,
2013-01-25 06:33:00,28.6,18.3,29.74,WNW,292,3.8,4.3,65,0.00,CLR,,0.00,0.0,WeatherDisplay:10.37,2013-01-25 05:33:00,
2013-01-25 06:38:00,28.6,18.3,29.71,NW,315,3.6,3.6,65,0.00,CLR,,0.00,0.0,WeatherDisplay:10.37,2013-01-25 05:38:00,
2013-01-25 06:43:00,28.6,18.3,29.71,NW,315,3.6,3.6,65,0.00,CLR,,0.00,0.0,WeatherDisplay:10.37,2013-01-25 05:43:00,
2013-01-25 06:48:00,28.6,18.3,29.71,NW,315,3.6,3.6,65,0.00,CLR,,0.00,0.0,WeatherDisplay:10.37,2013-01-25 05:48:00,
2013-01-25 06:53:00,28.4,18.5,29.74,NW,315,3.6,3.6,66,0.00,CLR,,0.00,0.0,WeatherDisplay:10.37,2013-01-25 05:53:00,
2013-01-25 06:58:00,28.4,18.5,29.74,NW,315,3.6,3.6,66,0.00,CLR,,0.00,0.0,WeatherDisplay:10.37,2013-01-25 05:58:00,
2013-01-25 07:03:00,28.4,18.5,29.74,NW,315,3.6,3.6,66,0.00,OVC,,0.00,0.0,WeatherDisplay:10.37,2013-01-25 06:03:00,
2013-01-25 07:08:00,28.2,18.3,29.71,NW,315,3.6,3.6,66,0.00,OVC,,0.00,0.0,WeatherDisplay:10.37,2013-01-25 06:08:00,
2013-01-25 07:13:00,28.2,18.3,29.71,NW,315,3.6,3.6,66,0.00,OVC,,0.00,0.0,WeatherDisplay:10.37,2013-01-25 06:13:00,
2013-01-25 07:18:00,28.2,18.3,29.71,NW,315,3.6,3.6,66,0.00,OVC,,0.00,0.0,WeatherDisplay:10.37,2013-01-25 06:18:00,
2013-01-25 07:23:00,28.2,18.3,29.77,NW,315,3.6,3.6,66,0.00,OVC,,0.00,0.0,WeatherDisplay:10.37,2013-01-25 06:23:00,
2013-01-25 07:28:00,28.2,18.3,29.77,NW,315,3.6,3.6,66,0.00,OVC,,0.00,0.0,WeatherDisplay:10.37,2013-01-25 06:28:00,
2013-01-25 07:33:00,28.2,18.3,29.77,NW,315,3.6,3.6,66,0.00,OVC,,0.00,0.0,WeatherDisplay:10.37,2013-01-25 06:33:00,
2013-01-25 07:38:00,28.2,18.7,29.74,WNW,292,3.8,3.8,67,0.00,OVC,,0.00,0.0,WeatherDisplay:10.37,2013-01-25 06:38:00,
2013-01-25 07:43:00,28.0,18.5,29.74,NNW,338,4.6,4.6,67,0.00,OVC,,0.00,0.0,WeatherDisplay:10.37,2013-01-25 06:43:00,
2013-01-25 07:48:00,28.0,18.5,29.74,West,270,3.5,3.5,67,0.00,OVC,,0.00,0.0,WeatherDisplay:10.37,2013-01-25 06:48:00,
2013-01-25 07:53:00,28.0,18.8,29.74,NNE,22,3.8,3.8,68,0.00,OVC,,0.00,0.0,WeatherDisplay:10.37,2013-01-25 06:53:00,
2013-01-25 07:58:00,28.0,18.8,29.74,NNE,22,3.5,4.3,68,0.00,OVC,,0.00,0.0,WeatherDisplay:10.37,2013-01-25 06:58:00,
2013-01-25 08:03:00,28.0,18.8,29.74,WNW,292,5.8,5.8,68,0.00,OVC,,0.00,0.0,WeatherDisplay:10.37,2013-01-25 07:03:00,
2013-01-25 08:08:00,28.0,18.8,29.77,NNW,338,6.9,6.9,68,0.00,OVC,,0.00,0.0,WeatherDisplay:10.37,2013-01-25 07:08:00,
2013-01-25 08:13:00,28.0,18.8,29.77,NW,315,4.6,4.6,68,0.00,OVC,,0.00,0.0,WeatherDisplay:10.37,2013-01-25 07:13:00,
2013-01-25 08:18:00,28.0,18.8,29.77,NNW,338,5.6,5.6,68,0.00,OVC,,0.00,0.0,WeatherDisplay:10.37,2013-01-25 07:18:00,
2013-01-25 08:23:00,28.0,18.8,29.71,NW,315,4.6,4.6,68,0.00,OVC,,0.00,0.0,WeatherDisplay:10.37,2013-01-25 07:23:00,
2013-01-25 08:28:00,28.0,18.8,29.71,WSW,248,4.6,4.7,68,0.00,OVC,,0.00,0.0,WeatherDisplay:10.37,2013-01-25 07:28:00,
2013-01-25 08:33:00,28.0,18.8,29.71,NW,315,4.6,4.9,68,0.00,OVC,,0.00,0.0,WeatherDisplay:10.37,2013-01-25 07:33:00,
2013-01-25 08:38:00,28.0,18.8,29.80,NNW,338,7.1,7.1,68,0.00,OVC,,0.00,0.0,WeatherDisplay:10.37,2013-01-25 07:38:00,
2013-01-25 08:43:00,28.0,18.5,29.80,WNW,292,5.9,5.9,67,0.00,OVC,,0.00,0.0,WeatherDisplay:10.37,2013-01-25 07:43:00,
2013-01-25 08:48:00,28.2,18.7,29.80,NNE,22,8.7,8.7,67,0.00,OVC,,0.00,0.0,WeatherDisplay:10.37,2013-01-25 07:48:00,
2013-01-25 08:53:00,28.2,18.3,29.74,North,0,9.2,9.2,66,0.00,OVC,,0.00,0.0,WeatherDisplay:10.37,2013-01-25 07:53:00,
2013-01-25 08:58:00,28.2,18.3,29.74,WNW,292,6.9,6.9,66,0.00,OVC,,0.00,0.0,WeatherDisplay:10.37,2013-01-25 07:58:00,
2013-01-25 09:03:00,28.2,18.3,29.74,NNW,338,6.9,6.9,66,0.00,OVC,,0.00,0.0,WeatherDisplay:10.37,2013-01-25 08:03:00,
2013-01-25 09:08:00,28.2,18.0,29.83,NNW,338,3.6,5.4,65,0.00,OVC,,0.00,0.0,WeatherDisplay:10.37,2013-01-25 08:08:00,
2013-01-25 09:13:00,28.4,18.1,29.83,NNW,338,5.9,6.0,65,0.00,OVC,,0.00,0.0,WeatherDisplay:10.37,2013-01-25 08:13:00,
2013-01-25 09:18:00,28.4,18.1,29.83,NNW,338,6.2,6.2,65,0.00,OVC,,0.00,0.0,WeatherDisplay:10.37,2013-01-25 08:18:00,
2013-01-25 09:23:00,28.4,18.1,29.83,NNE,22,5.8,5.8,65,0.00,OVC,,0.00,0.0,WeatherDisplay:10.37,2013-01-25 08:23:00,
2013-01-25 09:28:00,28.6,18.3,29.83,NW,315,5.8,5.9,65,0.00,OVC,,0.00,0.0,WeatherDisplay:10.37,2013-01-25 08:28:00,
2013-01-25 09:33:00,28.6,17.9,29.83,NNW,338,6.0,6.0,64,0.00,OVC,,0.00,0.0,WeatherDisplay:10.37,2013-01-25 08:33:00,
2013-01-25 09:38:00,28.8,18.5,29.80,NNW,338,5.8,5.8,65,0.00,OVC,,0.00,0.0,WeatherDisplay:10.37,2013-01-25 08:38:00,
2013-01-25 09:43:00,28.9,18.6,29.80,NNE,22,5.8,5.8,65,0.00,OVC,,0.00,0.0,WeatherDisplay:10.37,2013-01-25 08:43:00,
2013-01-25 09:48:00,29.1,18.5,29.80,NNE,22,5.8,5.8,64,0.00,OVC,,0.00,0.0,WeatherDisplay:10.37,2013-01-25 08:48:00,
2013-01-25 09:53:00,29.3,18.6,29.77,NNE,22,5.8,5.8,64,0.00,OVC,,0.00,0.0,WeatherDisplay:10.37,2013-01-25 08:53:00,
2013-01-25 10:00:00,29.5,18.1,29.77,WNW,292,3.5,3.5,62,0.00,OVC,,0.00,0.0,WeatherDisplay:10.37,2013-01-25 09:00:00,
2013-01-25 10:05:00,29.5,17.7,29.80,NE,45,2.4,4.9,61,0.00,OVC,,0.00,0.0,WeatherDisplay:10.37,2013-01-25 09:05:00,
2013-01-25 10:10:00,29.7,17.8,29.80,NNE,22,3.6,5.9,61,0.00,OVC,,0.00,0.0,WeatherDisplay:10.37,2013-01-25 09:10:00,
2013-01-25 10:15:00,29.7,17.8,29.80,NE,45,4.9,6.2,61,0.00,OVC,,0.00,0.0,WeatherDisplay:10.37,2013-01-25 09:15:00,
2013-01-25 10:20:00,29.8,17.6,29.80,NE,45,4.9,6.2,60,0.00,OVC,,0.00,0.0,WeatherDisplay:10.37,2013-01-25 09:20:00,
2013-01-25 10:25:00,29.8,17.2,29.80,NE,45,4.9,6.2,59,0.00,OVC,,0.00,0.0,WeatherDisplay:10.37,2013-01-25 09:25:00,
2013-01-25 10:30:00,30.0,17.4,29.80,NNW,338,8.1,8.1,59,0.00,OVC,,0.00,0.0,WeatherDisplay:10.37,2013-01-25 09:30:00,
2013-01-25 10:35:00,30.0,17.4,29.80,NNW,338,5.8,5.8,59,0.00,OVC,,0.00,0.0,WeatherDisplay:10.37,2013-01-25 09:35:00,
2013-01-25 10:40:00,30.2,17.6,29.80,NNE,22,7.4,7.4,59,0.00,OVC,,0.00,0.0,WeatherDisplay:10.37,2013-01-25 09:40:00,
2013-01-25 10:45:00,30.2,17.6,29.80,WNW,292,4.6,4.6,59,0.00,OVC,,0.00,0.0,WeatherDisplay:10.37,2013-01-25 09:45:00,
2013-01-25 10:50:00,30.4,16.9,29.83,NNW,338,4.0,4.9,57,0.00,OVC,,0.00,0.0,WeatherDisplay:10.37,2013-01-25 09:50:00,
2013-01-25 10:55:00,30.4,16.9,29.83,NNE,22,9.8,9.8,57,0.00,OVC,,0.00,0.0,WeatherDisplay:10.37,2013-01-25 09:55:00,
2013-01-25 11:00:00,30.4,16.9,29.83,NNW,338,6.0,6.0,57,0.00,OVC,,0.00,0.0,WeatherDisplay:10.37,2013-01-25 10:00:00,
2013-01-25 11:05:00,30.4,16.9,29.77,NNW,338,5.8,5.8,57,0.00,OVC,,0.00,0.0,WeatherDisplay:10.37,2013-01-25 10:05:00,
2013-01-25 11:10:00,30.6,17.1,29.77,NNW,338,7.6,7.6,57,0.00,OVC,,0.00,0.0,WeatherDisplay:10.37,2013-01-25 10:10:00,
2013-01-25 11:15:00,30.7,16.9,29.77,NNW,338,6.9,6.9,56,0.00,OVC,,0.00,0.0,WeatherDisplay:10.37,2013-01-25 10:15:00,
2013-01-25 11:20:00,30.9,17.5,29.77,NNW,338,5.9,5.9,57,0.00,OVC,,0.00,0.0,WeatherDisplay:10.37,2013-01-25 10:20:00,
2013-01-25 11:25:00,31.1,17.6,29.77,NNW,338,4.7,4.7,57,0.00,OVC,,0.00,0.0,WeatherDisplay:10.37,2013-01-25 10:25:00,
2013-01-25 11:30:00,31.1,17.6,29.77,NNW,338,9.2,9.2,57,0.00,OVC,,0.00,0.0,WeatherDisplay:10.37,2013-01-25 10:30:00,
2013-01-25 11:35:00,31.1,17.2,29.80,NNE,22,4.7,6.7,56,0.00,OVC,,0.00,0.0,WeatherDisplay:10.37,2013-01-25 10:35:00,
2013-01-25 11:40:00,31.1,17.2,29.80,NNE,22,5.8,5.8,56,0.00,OVC,,0.00,0.0,WeatherDisplay:10.37,2013-01-25 10:40:00,
2013-01-25 11:45:00,31.3,17.4,29.80,NW,315,7.4,7.4,56,0.00,OVC,,0.00,0.0,WeatherDisplay:10.37,2013-01-25 10:45:00,
2013-01-25 11:50:00,31.3,17.4,29.77,NNW,338,6.9,6.9,56,0.00,OVC,,0.00,0.0,WeatherDisplay:10.37,2013-01-25 10:50:00,
2013-01-25 11:55:00,31.3,17.0,29.77,WNW,292,6.9,6.9,55,0.00,OVC,,0.00,0.0,WeatherDisplay:10.37,2013-01-25 10:55:00,
2013-01-25 12:00:00,31.5,17.6,29.77,NNW,338,6.9,6.9,56,0.00,OVC,,0.00,0.0,WeatherDisplay:10.37,2013-01-25 11:00:00,
2013-01-25 12:05:00,31.6,17.3,29.77,NNW,338,4.6,5.9,55,0.00,OVC,,0.00,0.0,WeatherDisplay:10.37,2013-01-25 11:05:00,
2013-01-25 12:10:00,31.6,16.9,29.77,NNW,338,5.8,5.8,54,0.00,OVC,,0.00,0.0,WeatherDisplay:10.37,2013-01-25 11:10:00,
2013-01-25 12:15:00,31.6,16.9,29.77,North,0,8.1,8.1,54,0.00,OVC,,0.00,0.0,WeatherDisplay:10.37,2013-01-25 11:15:00,
2013-01-25 12:20:00,31.8,16.6,29.83,NNW,338,9.2,9.2,53,0.00,OVC,,0.00,0.0,WeatherDisplay:10.37,2013-01-25 11:20:00,
2013-01-25 12:25:00,31.8,17.0,29.83,NNW,338,9.2,9.2,54,0.00,OVC,,0.00,0.0,WeatherDisplay:10.37,2013-01-25 11:25:00,
2013-01-25 12:30:00,31.6,16.4,29.83,NNW,338,9.2,9.2,53,0.00,OVC,,0.00,0.0,WeatherDisplay:10.37,2013-01-25 11:30:00,
2013-01-25 12:35:00,31.6,16.9,29.85,North,0,5.8,5.8,54,0.00,OVC,,0.00,0.0,WeatherDisplay:10.37,2013-01-25 11:35:00,
2013-01-25 12:40:00,31.8,17.0,29.85,NNE,22,3.5,4.3,54,0.00,OVC,,0.00,0.0,WeatherDisplay:10.37,2013-01-25 11:40:00,
2013-01-25 12:45:00,31.8,17.0,29.85,NNW,338,5.8,5.8,54,0.00,OVC,,0.00,0.0,WeatherDisplay:10.37,2013-01-25 11:45:00,
2013-01-25 12:50:00,32.0,17.2,29.85,NNW,338,5.9,5.9,54,0.00,OVC,,0.00,0.0,WeatherDisplay:10.37,2013-01-25 11:50:00,
2013-01-25 12:55:00,32.0,17.2,29.85,NNW,338,6.9,6.9,54,0.00,OVC,,0.00,0.0,WeatherDisplay:10.37,2013-01-25 11:55:00,
2013-01-25 13:00:00,32.0,17.2,29.85,WNW,292,8.1,8.1,54,0.00,OVC,,0.00,0.0,WeatherDisplay:10.37,2013-01-25 12:00:00,
2013-01-25 13:05:00,32.0,17.2,29.85,NW,315,5.8,5.8,54,0.00,OVC,,0.00,0.0,WeatherDisplay:10.37,2013-01-25 12:05:00,
2013-01-25 13:10:00,32.0,17.2,29.85,WNW,292,4.0,4.0,54,0.00,OVC,,0.00,0.0,WeatherDisplay:10.37,2013-01-25 12:10:00,
2013-01-25 13:15:00,32.0,17.6,29.85,WNW,292,4.6,4.6,55,0.00,OVC,,0.00,0.0,WeatherDisplay:10.37,2013-01-25 12:15:00,
2013-01-25 13:20:00,31.8,17.0,29.85,WNW,292,8.1,8.1,54,0.00,OVC,,0.00,0.0,WeatherDisplay:10.37,2013-01-25 12:20:00,
2013-01-25 13:25:00,31.8,17.0,29.85,North,0,4.6,4.6,54,0.00,OVC,,0.00,0.0,WeatherDisplay:10.37,2013-01-25 12:25:00,
2013-01-25 13:30:00,31.8,17.0,29.85,NNW,338,5.8,6.2,54,0.00,OVC,,0.00,0.0,WeatherDisplay:10.37,2013-01-25 12:30:00,
2013-01-25 13:35:00,31.8,17.5,29.80,WSW,248,5.8,5.8,55,0.00,OVC,,0.00,0.0,WeatherDisplay:10.37,2013-01-25 12:35:00,
2013-01-25 13:40:00,31.8,17.5,29.80,NNW,338,5.4,5.4,55,0.00,OVC,,0.00,0.0,WeatherDisplay:10.37,2013-01-25 12:40:00,
2013-01-25 13:45:00,31.8,17.5,29.80,NW,315,6.9,6.9,55,0.00,OVC,,0.00,0.0,WeatherDisplay:10.37,2013-01-25 12:45:00,
2013-01-25 13:50:00,31.8,17.0,29.83,NNE,22,5.6,5.6,54,0.00,OVC,,0.00,0.0,WeatherDisplay:10.37,2013-01-25 12:50:00,
2013-01-25 13:55:00,31.8,17.5,29.83,WNW,292,7.4,7.4,55,0.00,OVC,,0.00,0.0,WeatherDisplay:10.37,2013-01-25 12:55:00,
2013-01-25 14:00:00,31.6,16.4,29.83,NNE,22,2.6,3.3,53,0.00,OVC,,0.00,0.0,WeatherDisplay:10.37,2013-01-25 13:00:00,
2013-01-25 14:05:00,31.6,16.9,29.80,NNE,22,5.8,5.8,54,0.00,OVC,,0.00,0.0,WeatherDisplay:10.37,2013-01-25 13:05:00,
2013-01-25 14:10:00,31.6,16.9,29.80,NNW,338,4.6,4.6,54,0.00,OVC,,0.00,0.0,WeatherDisplay:10.37,2013-01-25 13:10:00,
2013-01-25 14:15:00,31.5,16.3,29.80,NNW,338,3.5,3.5,53,0.00,OVC,,0.00,0.0,WeatherDisplay:10.37,2013-01-25 13:15:00,
2013-01-25 14:20:00,31.5,16.3,29.80,NNW,338,7.4,7.4,53,0.00,OVC,,0.00,0.0,WeatherDisplay:10.37,2013-01-25 13:20:00,
2013-01-25 14:25:00,31.3,16.1,29.80,NNE,22,4.6,5.6,53,0.00,OVC,,0.00,0.0,WeatherDisplay:10.37,2013-01-25 13:25:00,
2013-01-25 14:30:00,31.3,16.1,29.80,NNW,338,5.8,5.9,53,0.00,OVC,,0.00,0.0,WeatherDisplay:10.37,2013-01-25 13:30:00,
2013-01-25 14:35:00,31.3,16.1,29.80,NNW,338,5.8,5.8,53,0.00,OVC,,0.00,0.0,WeatherDisplay:10.37,2013-01-25 13:35:00,
2013-01-25 14:40:00,31.3,15.7,29.80,NNW,338,5.8,5.8,52,0.00,OVC,,0.00,0.0,WeatherDisplay:10.37,2013-01-25 13:40:00,
2013-01-25 14:45:00,31.3,15.7,29.80,NNW,338,4.6,4.6,52,0.00,OVC,,0.00,0.0,WeatherDisplay:10.37,2013-01-25 13:45:00,
2013-01-25 14:50:00,31.1,15.5,29.80,NNW,338,6.9,6.9,52,0.00,OVC,,0.00,0.0,WeatherDisplay:10.37,2013-01-25 13:50:00,
2013-01-25 14:55:00,31.1,15.9,29.80,NNW,338,4.6,4.7,53,0.00,OVC,,0.00,0.0,WeatherDisplay:10.37,2013-01-25 13:55:00,
2013-01-25 15:00:00,31.1,15.5,29.80,North,0,4.6,5.4,52,0.00,OVC,,0.00,0.0,WeatherDisplay:10.37,2013-01-25 14:00:00,
2013-01-25 15:05:00,31.1,15.5,29.83,NNE,22,5.8,5.8,52,0.00,OVC,,0.00,0.0,WeatherDisplay:10.37,2013-01-25 14:05:00,
2013-01-25 15:10:00,31.1,15.5,29.83,WSW,248,5.8,5.8,52,0.00,OVC,,0.00,0.0,WeatherDisplay:10.37,2013-01-25 14:10:00,
2013-01-25 15:15:00,30.9,15.3,29.83,NNW,338,6.0,6.0,52,0.00,OVC,,0.00,0.0,WeatherDisplay:10.37,2013-01-25 14:15:00,
2013-01-25 15:20:00,30.9,15.3,29.80,NNW,338,4.6,4.6,52,0.00,OVC,,0.00,0.0,WeatherDisplay:10.37,2013-01-25 14:20:00,
2013-01-25 15:25:00,30.9,15.3,29.80,NNW,338,3.5,3.5,52,0.00,OVC,,0.00,0.0,WeatherDisplay:10.37,2013-01-25 14:25:00,
2013-01-25 15:30:00,30.7,15.2,29.80,NNW,338,4.6,4.6,52,0.00,OVC,,0.00,0.0,WeatherDisplay:10.37,2013-01-25 14:30:00,
2013-01-25 15:35:00,30.7,15.6,29.85,WNW,292,2.4,2.9,53,0.00,OVC,,0.00,0.0,WeatherDisplay:10.37,2013-01-25 14:35:00,
2013-01-25 15:40:00,30.7,15.6,29.85,NW,315,3.5,3.5,53,0.00,OVC,,0.00,0.0,WeatherDisplay:10.37,2013-01-25 14:40:00,
2013-01-25 15:45:00,30.7,15.6,29.85,North,0,4.7,4.7,53,0.00,OVC,,0.00,0.0,WeatherDisplay:10.37,2013-01-25 14:45:00,
2013-01-25 15:50:00,30.7,15.6,29.85,NNW,338,2.6,3.8,53,0.00,OVC,,0.00,0.0,WeatherDisplay:10.37,2013-01-25 14:50:00,
2013-01-25 15:55:00,30.6,15.0,29.85,NNE,22,3.5,3.5,52,0.00,OVC,,0.00,0.0,WeatherDisplay:10.37,2013-01-25 14:55:00,
2013-01-25 16:00:00,30.6,15.4,29.85,NNE,22,2.6,2.6,53,0.00,OVC,,0.00,0.0,WeatherDisplay:10.37,2013-01-25 15:00:00,
2013-01-25 16:05:00,30.4,14.8,29.88,NNE,22,2.4,3.1,52,0.00,OVC,,0.00,0.0,WeatherDisplay:10.37,2013-01-25 15:05:00,
2013-01-25 16:10:00,30.4,14.8,29.88,NNW,338,4.6,4.6,52,0.00,OVC,,0.00,0.0,WeatherDisplay:10.37,2013-01-25 15:10:00,
2013-01-25 16:15:00,30.2,15.1,29.88,NNE,22,3.5,3.5,53,0.00,OVC,,0.00,0.0,WeatherDisplay:10.37,2013-01-25 15:15:00,
2013-01-25 16:20:00,30.2,15.1,29.88,NNE,22,4.6,4.6,53,0.00,OVC,,0.00,0.0,WeatherDisplay:10.37,2013-01-25 15:20:00,
2013-01-25 16:25:00,30.0,14.9,29.88,NNW,338,4.6,4.6,53,0.00,OVC,,0.00,0.0,WeatherDisplay:10.37,2013-01-25 15:25:00,
2013-01-25 16:30:00,30.0,14.9,29.88,North,0,3.5,3.5,53,0.00,OVC,,0.00,0.0,WeatherDisplay:10.37,2013-01-25 15:30:00,
2013-01-25 16:35:00,29.8,14.8,29.91,NE,45,5.6,5.6,53,0.00,OVC,,0.00,0.0,WeatherDisplay:10.37,2013-01-25 15:35:00,
2013-01-25 16:40:00,29.7,14.6,29.91,NNE,22,3.8,4.0,53,0.00,OVC,,0.00,0.0,WeatherDisplay:10.37,2013-01-25 15:40:00,
2013-01-25 16:46:00,29.5,14.0,29.91,NNW,338,3.5,3.5,52,0.00,OVC,,0.00,0.0,WeatherDisplay:10.37,2013-01-25 15:46:00,
2013-01-25 16:51:00,29.5,14.0,29.88,NNE,22,1.4,2.6,52,0.00,OVC,,0.00,0.0,WeatherDisplay:10.37,2013-01-25 15:51:00,
2013-01-25 16:56:00,29.3,13.8,29.88,NNW,338,3.1,3.3,52,0.00,OVC,,0.00,0.0,WeatherDisplay:10.37,2013-01-25 15:56:00,
2013-01-25 17:01:00,29.1,13.7,29.88,NNE,22,2.4,2.4,52,0.00,CLR,,0.00,0.0,WeatherDisplay:10.37,2013-01-25 16:01:00,
2013-01-25 17:06:00,29.1,13.7,29.91,NE,45,2.3,2.3,52,0.00,CLR,,0.00,0.0,WeatherDisplay:10.37,2013-01-25 16:06:00,
2013-01-25 17:11:00,28.9,13.5,29.91,ENE,68,3.8,4.3,52,0.00,CLR,,0.00,0.0,WeatherDisplay:10.37,2013-01-25 16:11:00,
2013-01-25 17:16:00,28.8,13.3,29.91,ENE,68,2.9,2.9,52,0.00,CLR,,0.00,0.0,WeatherDisplay:10.37,2013-01-25 16:16:00,
2013-01-25 17:22:00,28.6,13.2,29.94,NNE,22,3.6,3.6,52,0.00,CLR,,0.00,0.0,WeatherDisplay:10.37,2013-01-25 16:22:00,
2013-01-25 17:27:00,28.6,13.2,29.94,NNW,338,1.4,4.0,52,0.00,CLR,,0.00,0.0,WeatherDisplay:10.37,2013-01-25 16:27:00,
2013-01-25 17:32:00,28.4,13.0,29.94,NNE,22,2.3,2.3,52,0.00,CLR,,0.00,0.0,WeatherDisplay:10.37,2013-01-25 16:32:00,
2013-01-25 17:37:00,28.4,12.6,29.88,NNW,338,1.1,1.6,51,0.00,CLR,,0.00,0.0,WeatherDisplay:10.37,2013-01-25 16:37:00,
2013-01-25 17:42:00,28.2,12.8,29.88,NNE,22,5.8,5.8,52,0.00,CLR,,0.00,0.0,WeatherDisplay:10.37,2013-01-25 16:42:00,
2013-01-25 17:47:00,28.0,12.7,29.88,NNW,338,3.6,4.3,52,0.00,CLR,,0.00,0.0,WeatherDisplay:10.37,2013-01-25 16:47:00,
2013-01-25 17:52:00,28.0,12.7,29.91,NNW,338,4.9,4.9,52,0.00,CLR,,0.00,0.0,WeatherDisplay:10.37,2013-01-25 16:52:00,
2013-01-25 17:57:00,27.9,12.5,29.91,NNW,338,4.9,4.9,52,0.00,CLR,,0.00,0.0,WeatherDisplay:10.37,2013-01-25 16:57:00,
2013-01-25 18:02:00,27.9,12.5,29.91,North,0,3.5,4.0,52,0.00,CLR,,0.00,0.0,WeatherDisplay:10.37,2013-01-25 17:02:00,
2013-01-25 18:07:00,27.9,12.5,29.91,North,0,3.5,4.0,52,0.00,CLR,,0.00,0.0,WeatherDisplay:10.37,2013-01-25 17:07:00,
2013-01-25 18:12:00,27.9,12.5,29.91,NNW,338,6.9,6.9,52,0.00,CLR,,0.00,0.0,WeatherDisplay:10.37,2013-01-25 17:12:00,
2013-01-25 18:17:00,27.9,12.1,29.91,NNW,338,6.9,6.9,51,0.00,CLR,,0.00,0.0,WeatherDisplay:10.37,2013-01-25 17:17:00,
2013-01-25 18:22:00,27.9,12.1,29.83,NNW,338,6.9,6.9,51,0.00,CLR,,0.00,0.0,WeatherDisplay:10.37,2013-01-25 17:22:00,
2013-01-25 18:27:00,27.7,12.3,29.83,NNW,338,6.9,6.9,52,0.00,CLR,,0.00,0.0,WeatherDisplay:10.37,2013-01-25 17:27:00,
2013-01-25 18:32:00,27.7,11.9,29.83,NW,315,2.3,4.7,51,0.00,CLR,,0.00,0.0,WeatherDisplay:10.37,2013-01-25 17:32:00,
2013-01-25 18:37:00,27.7,12.3,29.88,NNW,338,6.0,6.0,52,0.00,CLR,,0.00,0.0,WeatherDisplay:10.37,2013-01-25 17:37:00,
2013-01-25 18:42:00,27.7,12.3,29.88,NNE,22,8.7,8.7,52,0.00,CLR,,0.00,0.0,WeatherDisplay:10.37,2013-01-25 17:42:00,
2013-01-25 18:47:00,27.7,11.9,29.88,ENE,68,8.1,8.1,51,0.00,CLR,,0.00,0.0,WeatherDisplay:10.37,2013-01-25 17:47:00,
2013-01-25 18:52:00,27.7,11.9,29.85,NNW,338,5.9,5.9,51,0.00,CLR,,0.00,0.0,WeatherDisplay:10.37,2013-01-25 17:52:00,
2013-01-25 18:57:00,27.5,11.7,29.85,NNW,338,5.8,5.8,51,0.00,CLR,,0.00,0.0,WeatherDisplay:10.37,2013-01-25 17:57:00,
2013-01-25 19:02:00,27.5,11.7,29.85,NNW,338,4.6,4.6,51,0.00,CLR,,0.00,0.0,WeatherDisplay:10.37,2013-01-25 18:02:00,
2013-01-25 19:07:00,27.5,11.7,29.91,NNW,338,4.6,4.6,51,0.00,CLR,,0.00,0.0,WeatherDisplay:10.37,2013-01-25 18:07:00,
2013-01-25 19:12:00,27.5,11.7,29.91,NNE,22,8.5,8.5,51,0.00,CLR,,0.00,0.0,WeatherDisplay:10.37,2013-01-25 18:12:00,
2013-01-25 19:17:00,27.5,11.7,29.91,NNE,22,5.8,5.8,51,0.00,CLR,,0.00,0.0,WeatherDisplay:10.37,2013-01-25 18:17:00,
2013-01-25 19:22:00,27.3,11.5,29.91,NNW,338,8.1,8.1,51,0.00,CLR,,0.00,0.0,WeatherDisplay:10.37,2013-01-25 18:22:00,
2013-01-25 19:27:00,27.3,11.5,29.91,NNE,22,6.9,6.9,51,0.00,CLR,,0.00,0.0,WeatherDisplay:10.37,2013-01-25 18:27:00,
2013-01-25 19:32:00,27.3,12.0,29.91,NE,45,5.9,5.9,52,0.00,CLR,,0.00,0.0,WeatherDisplay:10.37,2013-01-25 18:32:00,
2013-01-25 19:37:00,27.3,11.5,29.91,NNE,22,6.2,6.2,51,0.00,CLR,,0.00,0.0,WeatherDisplay:10.37,2013-01-25 18:37:00,
2013-01-25 19:42:00,27.3,12.0,29.91,NNW,338,4.6,4.6,52,0.00,CLR,,0.00,0.0,WeatherDisplay:10.37,2013-01-25 18:42:00,
2013-01-25 19:47:00,27.3,12.0,29.91,North,0,11.5,11.5,52,0.00,CLR,,0.00,0.0,WeatherDisplay:10.37,2013-01-25 18:47:00,
2013-01-25 19:52:00,27.3,12.0,29.94,ENE,68,6.0,6.0,52,0.00,CLR,,0.00,0.0,WeatherDisplay:10.37,2013-01-25 18:52:00,
2013-01-25 19:57:00,27.3,12.0,29.94,NNW,338,5.8,5.8,52,0.00,CLR,,0.00,0.0,WeatherDisplay:10.37,2013-01-25 18:57:00,
2013-01-25 20:02:00,27.3,12.0,29.94,NW,315,6.9,6.9,52,0.00,CLR,,0.00,0.0,WeatherDisplay:10.37,2013-01-25 19:02:00,
2013-01-25 20:07:00,27.1,11.8,29.94,NNW,338,6.9,6.9,52,0.00,CLR,,0.00,0.0,WeatherDisplay:10.37,2013-01-25 19:07:00,
2013-01-25 20:12:00,27.1,11.8,29.94,NNE,22,8.1,8.1,52,0.00,CLR,,0.00,0.0,WeatherDisplay:10.37,2013-01-25 19:12:00,
2013-01-25 20:17:00,27.1,11.8,29.94,NNW,338,5.4,5.4,52,0.00,CLR,,0.00,0.0,WeatherDisplay:10.37,2013-01-25 19:17:00,
2013-01-25 20:22:00,27.1,11.8,29.94,NNW,338,3.5,3.5,52,0.00,CLR,,0.00,0.0,WeatherDisplay:10.37,2013-01-25 19:22:00,
2013-01-25 20:27:00,27.1,11.8,29.94,NNW,338,5.8,5.8,52,0.00,CLR,,0.00,0.0,WeatherDisplay:10.37,2013-01-25 19:27:00,
2013-01-25 20:32:00,27.1,11.8,29.94,NNE,22,4.6,4.6,52,0.00,CLR,,0.00,0.0,WeatherDisplay:10.37,2013-01-25 19:32:00,
2013-01-25 20:37:00,27.1,11.8,29.88,NW,315,4.0,4.0,52,0.00,CLR,,0.00,0.0,WeatherDisplay:10.37,2013-01-25 19:37:00,
2013-01-25 20:42:00,27.1,12.3,29.88,NNE,22,4.6,4.6,53,0.00,CLR,,0.00,0.0,WeatherDisplay:10.37,2013-01-25 19:42:00,
2013-01-25 20:47:00,27.1,11.8,29.88,North,0,4.6,4.6,52,0.00,CLR,,0.00,0.0,WeatherDisplay:10.37,2013-01-25 19:47:00,
2013-01-25 20:52:00,27.1,11.8,29.91,NNW,338,5.8,5.8,52,0.00,CLR,,0.00,0.0,WeatherDisplay:10.37,2013-01-25 19:52:00,
2013-01-25 20:57:00,27.1,11.8,29.91,NNW,338,4.6,4.6,52,0.00,CLR,,0.00,0.0,WeatherDisplay:10.37,2013-01-25 19:57:00,
2013-01-25 21:02:00,27.1,11.8,29.91,West,270,5.8,5.8,52,0.00,CLR,,0.00,0.0,WeatherDisplay:10.37,2013-01-25 20:02:00,
2013-01-25 21:07:00,27.1,11.8,29.91,ENE,68,5.8,5.8,52,0.00,CLR,,0.00,0.0,WeatherDisplay:10.37,2013-01-25 20:07:00,
2013-01-25 21:12:00,27.1,11.8,29.91,NNE,22,6.9,6.9,52,0.00,CLR,,0.00,0.0,WeatherDisplay:10.37,2013-01-25 20:12:00,
2013-01-25 21:17:00,27.1,11.8,29.91,NE,45,5.8,5.8,52,0.00,CLR,,0.00,0.0,WeatherDisplay:10.37,2013-01-25 20:17:00,
2013-01-25 21:22:00,27.0,11.7,29.91,ENE,68,5.8,6.2,52,0.00,CLR,,0.00,0.0,WeatherDisplay:10.37,2013-01-25 20:22:00,
2013-01-25 21:27:00,27.0,11.7,29.91,NNE,22,8.1,8.1,52,0.00,CLR,,0.00,0.0,WeatherDisplay:10.37,2013-01-25 20:27:00,
2013-01-25 21:32:00,27.0,11.7,29.91,NNW,338,4.6,4.6,52,0.00,CLR,,0.00,0.0,WeatherDisplay:10.37,2013-01-25 20:32:00,
2013-01-25 21:37:00,27.0,11.7,29.88,NNE,22,4.6,5.4,52,0.00,CLR,,0.00,0.0,WeatherDisplay:10.37,2013-01-25 20:37:00,
2013-01-25 21:42:00,27.0,11.7,29.88,NNE,22,6.7,6.7,52,0.00,CLR,,0.00,0.0,WeatherDisplay:10.37,2013-01-25 20:42:00,
2013-01-25 21:47:00,27.0,11.7,29.88,NNE,22,2.6,4.5,52,0.00,CLR,,0.00,0.0,WeatherDisplay:10.37,2013-01-25 20:47:00,
2013-01-25 21:52:00,27.0,12.1,29.88,NW,315,5.8,5.8,53,0.00,CLR,,0.00,0.0,WeatherDisplay:10.37,2013-01-25 20:52:00,
2013-01-25 21:57:00,26.8,11.9,29.88,NE,45,3.5,3.5,53,0.00,CLR,,0.00,0.0,WeatherDisplay:10.37,2013-01-25 20:57:00,
2013-01-25 22:02:00,26.8,11.9,29.88,NNW,338,4.7,5.4,53,0.00,CLR,,0.00,0.0,WeatherDisplay:10.37,2013-01-25 21:02:00,
2013-01-25 22:07:00,26.8,11.9,29.88,NNE,22,5.8,5.8,53,0.00,CLR,,0.00,0.0,WeatherDisplay:10.37,2013-01-25 21:07:00,
2013-01-25 22:12:00,26.6,11.7,29.88,NNW,338,6.2,6.2,53,0.00,CLR,,0.00,0.0,WeatherDisplay:10.37,2013-01-25 21:12:00,
2013-01-25 22:17:00,26.6,11.7,29.88,NNW,338,8.1,8.1,53,0.00,CLR,,0.00,0.0,WeatherDisplay:10.37,2013-01-25 21:17:00,
2013-01-25 22:22:00,26.4,11.6,29.91,NNE,22,5.8,5.8,53,0.00,CLR,,0.00,0.0,WeatherDisplay:10.37,2013-01-25 21:22:00,
2013-01-25 22:27:00,26.4,11.6,29.91,NE,45,5.4,6.0,53,0.00,CLR,,0.00,0.0,WeatherDisplay:10.37,2013-01-25 21:27:00,
2013-01-25 22:32:00,26.2,11.4,29.91,NNW,338,4.6,4.6,53,0.00,CLR,,0.00,0.0,WeatherDisplay:10.37,2013-01-25 21:32:00,
2013-01-25 22:37:00,26.2,11.8,29.91,NNE,22,4.6,4.6,54,0.00,CLR,,0.00,0.0,WeatherDisplay:10.37,2013-01-25 21:37:00,
2013-01-25 22:42:00,26.2,11.8,29.91,NNE,22,8.1,8.1,54,0.00,CLR,,0.00,0.0,WeatherDisplay:10.37,2013-01-25 21:42:00,
2013-01-25 22:47:00,26.2,11.8,29.91,ENE,68,5.8,5.8,54,0.00,CLR,,0.00,0.0,WeatherDisplay:10.37,2013-01-25 21:47:00,
2013-01-25 22:52:00,26.2,11.8,29.91,NNE,22,3.6,3.6,54,0.00,CLR,,0.00,0.0,WeatherDisplay:10.37,2013-01-25 21:52:00,
2013-01-25 22:57:00,26.2,11.8,29.91,NNE,22,2.6,2.6,54,0.00,CLR,,0.00,0.0,WeatherDisplay:10.37,2013-01-25 21:57:00,
2013-01-25 23:02:00,26.2,11.8,29.91,NNE,22,2.6,2.6,54,0.00,CLR,,0.00,0.0,WeatherDisplay:10.37,2013-01-25 22:02:00,
2013-01-25 23:07:00,26.1,11.7,29.94,NNE,22,6.2,6.2,54,0.00,CLR,,0.00,0.0,WeatherDisplay:10.37,2013-01-25 22:07:00,
2013-01-25 23:12:00,26.1,11.7,29.94,NNE,22,6.9,6.9,54,0.00,CLR,,0.00,0.0,WeatherDisplay:10.37,2013-01-25 22:12:00,
2013-01-25 23:17:00,26.1,11.7,29.94,NNE,22,5.8,5.8,54,0.00,CLR,,0.00,0.0,WeatherDisplay:10.37,2013-01-25 22:17:00,
2013-01-25 23:22:00,26.1,11.7,29.94,NNE,22,8.1,8.1,54,0.00,CLR,,0.00,0.0,WeatherDisplay:10.37,2013-01-25 22:22:00,
2013-01-25 23:27:00,26.1,11.7,29.94,NNE,22,6.9,6.9,54,0.00,CLR,,0.00,0.0,WeatherDisplay:10.37,2013-01-25 22:27:00,
2013-01-25 23:32:00,26.1,11.7,29.94,WNW,292,8.1,8.1,54,0.00,CLR,,0.00,0.0,WeatherDisplay:10.37,2013-01-25 22:32:00,
2013-01-25 23:37:00,26.1,11.7,29.94,NNE,22,4.9,4.9,54,0.00,CLR,,0.00,0.0,WeatherDisplay:10.37,2013-01-25 22:37:00,
2013-01-25 23:42:00,26.1,11.7,29.94,NNW,338,4.6,4.6,54,0.00,CLR,,0.00,0.0,WeatherDisplay:10.37,2013-01-25 22:42:00,
2013-01-25 23:47:00,26.1,11.7,29.94,NNE,22,5.8,5.8,54,0.00,CLR,,0.00,0.0,WeatherDisplay:10.37,2013-01-25 22:47:00,
2013-01-25 23:52:00,26.1,11.7,29.91,WNW,292,5.8,5.8,54,0.00,CLR,,0.00,0.0,WeatherDisplay:10.37,2013-01-25 22:52:00,
2013-01-25 23:57:00,26.1,11.7,29.91,NNE,22,6.9,6.9,54,0.00,CLR,,0.00,0.0,WeatherDisplay:10.37,2013-01-25 22:57:00,